Coastal Messenger — CFL9726 — position and weather

sailwx.info

Track history (hours):
 
Tides and Currents Weather Stations Pressure Air Temp Water Temp Dewpoint Dewpoint Depression Visibility Wind Speed Wind Dir Waves Ship Positions

Coastal Messenger

Last reported at 2017-Feb-24 18:09 UTC. Time now 2017-Feb-25 20:35 UTC.
Position N 48°60' W 123°49'.

Length 16 m.

Type: Pleasure craft. MMSI: 316016342.

Date/timePositionNaut miles runAvg speedWind from/ knotsBaromVisibWave heightAir tempDewpointWater temp
2017-Feb-24 18:09N 48°60' W 123°49'0 0.0
2017-Feb-24 10:21N 48°60' W 123°49'0 0.0
2017-Feb-24 08:17N 48°60' W 123°49'0 0.0
2017-Feb-24 07:29N 48°60' W 123°49'0 0.0
2017-Feb-24 06:29N 48°60' W 123°49'0 0.0
2017-Feb-24 05:17N 48°60' W 123°49'0 0.0
2017-Feb-24 04:29N 48°60' W 123°49'0 0.0
2017-Feb-24 03:17N 48°60' W 123°49'0 0.0
2017-Feb-24 01:18N 48°60' W 123°49'0 0.0
2017-Feb-23 09:30N 48°60' W 123°49'0 0.0
2017-Feb-22 20:30N 48°60' W 123°49'0 0.0
2017-Feb-22 12:24N 48°60' W 123°49'0 0.0
2017-Feb-21 16:30N 48°60' W 123°49'0 0.0
2017-Feb-21 13:13N 48°60' W 123°49'0 0.0
2017-Feb-21 12:19N 48°60' W 123°49'  
2017-Feb-19 05:25N 48°60' W 123°49'0 0.0
2017-Feb-17 15:25N 48°60' W 123°49'3 0.2
2017-Feb-16 23:22N 48°58' W 123°45'9 8.0
2017-Feb-16 22:16N 48°51' W 123°35'5 7.5
2017-Feb-16 21:33N 48°46' W 123°34'1 1.4
2017-Feb-16 20:33N 48°45' W 123°33'5 4.8
2017-Feb-16 19:33N 48°42' W 123°27'5 2.5
2017-Feb-16 17:33N 48°39' W 123°21'10 7.9
2017-Feb-16 16:14N 48°37' W 123°05'7 7.7
2017-Feb-16 15:24N 48°35' W 122°56'1 0.6
2017-Feb-16 14:31N 48°35' W 122°56'0 0.0
2017-Feb-16 12:31N 48°35' W 122°56'0 0.0
2017-Feb-16 11:31N 48°35' W 122°56'0 0.0
2017-Feb-16 10:25N 48°35' W 122°56'0 0.0
2017-Feb-16 08:31N 48°35' W 122°56'0 0.0
2017-Feb-16 07:31N 48°35' W 122°56'0 0.0
2017-Feb-16 05:25N 48°35' W 122°56'0 0.0
2017-Feb-16 04:28N 48°35' W 122°56'0 0.0
2017-Feb-16 03:28N 48°35' W 122°56'0 0.0
2017-Feb-16 00:31N 48°35' W 122°56'0 0.0
2017-Feb-15 23:22N 48°35' W 122°56'0 0.0
2017-Feb-15 21:28N 48°35' W 122°56'3 3.2
2017-Feb-15 20:33N 48°35' W 122°52'9 8.2
2017-Feb-15 19:31N 48°36' W 122°39'8 8.3
2017-Feb-15 18:33N 48°29' W 122°32'  
Track history (hours):
 
Tides and Currents Weather Stations Pressure Air Temp Water Temp Dewpoint Dewpoint Depression Visibility Wind Speed Wind Dir Waves Ship Positions

Coastal Messenger

Last reported at 2017-Feb-24 18:09 UTC. Time now 2017-Feb-25 20:35 UTC.
Position N 48°60' W 123°49'.

Length 16 m.

Type: Pleasure craft. MMSI: 316016342.

Date/timePositionNaut miles runAvg speedWind from/ knotsBaromVisibWave heightAir tempDewpointWater temp
2017-Feb-24 18:09N 48°60' W 123°49'0 0.0
2017-Feb-24 10:21N 48°60' W 123°49'0 0.0
2017-Feb-24 08:17N 48°60' W 123°49'0 0.0
2017-Feb-24 07:29N 48°60' W 123°49'0 0.0
2017-Feb-24 06:29N 48°60' W 123°49'0 0.0
2017-Feb-24 05:17N 48°60' W 123°49'0 0.0
2017-Feb-24 04:29N 48°60' W 123°49'0 0.0
2017-Feb-24 03:17N 48°60' W 123°49'0 0.0
2017-Feb-24 01:18N 48°60' W 123°49'0 0.0
2017-Feb-23 09:30N 48°60' W 123°49'0 0.0
2017-Feb-22 20:30N 48°60' W 123°49'0 0.0
2017-Feb-22 12:24N 48°60' W 123°49'0 0.0
2017-Feb-21 16:30N 48°60' W 123°49'0 0.0
2017-Feb-21 13:13N 48°60' W 123°49'0 0.0
2017-Feb-21 12:19N 48°60' W 123°49'  
2017-Feb-19 05:25N 48°60' W 123°49'0 0.0
2017-Feb-17 15:25N 48°60' W 123°49'3 0.2
2017-Feb-16 23:22N 48°58' W 123°45'9 8.0
2017-Feb-16 22:16N 48°51' W 123°35'5 7.5
2017-Feb-16 21:33N 48°46' W 123°34'1 1.4
2017-Feb-16 20:33N 48°45' W 123°33'5 4.8
2017-Feb-16 19:33N 48°42' W 123°27'5 2.5
2017-Feb-16 17:33N 48°39' W 123°21'10 7.9
2017-Feb-16 16:14N 48°37' W 123°05'7 7.7
2017-Feb-16 15:24N 48°35' W 122°56'1 0.6
2017-Feb-16 14:31N 48°35' W 122°56'0 0.0
2017-Feb-16 12:31N 48°35' W 122°56'0 0.0
2017-Feb-16 11:31N 48°35' W 122°56'0 0.0
2017-Feb-16 10:25N 48°35' W 122°56'0 0.0
2017-Feb-16 08:31N 48°35' W 122°56'0 0.0
2017-Feb-16 07:31N 48°35' W 122°56'0 0.0
2017-Feb-16 05:25N 48°35' W 122°56'0 0.0
2017-Feb-16 04:28N 48°35' W 122°56'0 0.0
2017-Feb-16 03:28N 48°35' W 122°56'0 0.0
2017-Feb-16 00:31N 48°35' W 122°56'0 0.0
2017-Feb-15 23:22N 48°35' W 122°56'0 0.0
2017-Feb-15 21:28N 48°35' W 122°56'3 3.2
2017-Feb-15 20:33N 48°35' W 122°52'9 8.2
2017-Feb-15 19:31N 48°36' W 122°39'8 8.3
2017-Feb-15 18:33N 48°29' W 122°32'  

Dump ship's entire track history